Time;durP1;ratioP1;P1;durP2;ratioP2;P2;SDS_P1;SDS_P2;PMS_P1;PMS_P2;Temp;Humidity;BMP_temperature;BMP_pressure;BME280_temperature;BME280_humidity;BME280_pressure;Samples;Min_cycle;Max_cycle;Signal;HPM_P1;HPM_P2
2023/10/15 00:00:59;;;;;;;30.73;3.85;;;;;;;;;;4923362;29;20044;-56
2023/10/15 00:03:25;;;;;;;24.52;3.13;;;;;;;;;;4912382;29;20044;-52
2023/10/15 00:05:52;;;;;;;48.03;5.18;;;;;;;;;;4911182;29;20123;-53
2023/10/15 00:08:19;;;;;;;21.40;3.30;;;;;;;;;;4915166;29;20058;-57
2023/10/15 00:10:46;;;;;;;18.42;2.55;;;;;;;;;;4898714;29;20075;-55
2023/10/15 00:13:13;;;;;;;21.10;3.22;;;;;;;;;;4913077;29;20096;-55
2023/10/15 00:15:40;;;;;;;30.88;3.72;;;;;;;;;;4891755;29;20075;-54
2023/10/15 00:18:09;;;;;;;60.95;5.57;;;;;;;;;;4906394;29;20067;-56
2023/10/15 00:20:38;;;;;;;25.38;2.95;;;;;;;;;;4897658;29;20076;-55
2023/10/15 00:23:04;;;;;;;25.20;4.05;;;;;;;;;;4916316;29;20044;-55
2023/10/15 00:25:35;;;;;;;25.50;3.40;;;;;;;;;;4925536;29;20637;-55
2023/10/15 00:28:05;;;;;;;42.25;4.05;;;;;;;;;;4910866;29;20052;-55
2023/10/15 00:30:33;;;;;;;25.88;3.17;;;;;;;;;;4909745;29;20127;-55
2023/10/15 00:33:03;;;;;;;56.92;4.78;;;;;;;;;;4897846;29;20144;-54
2023/10/15 00:35:34;;;;;;;28.85;3.00;;;;;;;;;;4918708;29;20060;-53
2023/10/15 00:38:11;;;;;;;33.17;3.35;;;;;;;;;;4908541;29;20099;-52
2023/10/15 00:40:37;;;;;;;20.38;2.97;;;;;;;;;;4899348;29;20102;-56
2023/10/15 00:43:05;;;;;;;33.95;3.85;;;;;;;;;;4911185;29;20084;-56
2023/10/15 00:45:44;;;;;;;32.88;3.85;;;;;;;;;;4901456;29;20123;-53
2023/10/15 00:48:12;;;;;;;36.92;3.97;;;;;;;;;;4901302;29;20071;-55
2023/10/15 00:50:41;;;;;;;33.47;4.20;;;;;;;;;;4914416;29;20472;-55
2023/10/15 00:53:21;;;;;;;27.05;4.07;;;;;;;;;;4912876;29;20074;-55
2023/10/15 00:56:03;;;;;;;26.92;3.50;;;;;;;;;;4920989;29;20056;-56
2023/10/15 01:01:19;;;;;;;31.35;3.28;;;;;;;;;;4908909;29;20052;-55
2023/10/15 01:03:49;;;;;;;29.85;3.03;;;;;;;;;;4894687;29;20119;-56
2023/10/15 01:06:20;;;;;;;19.08;2.42;;;;;;;;;;4894962;29;20131;-53
2023/10/15 01:08:47;;;;;;;27.23;3.40;;;;;;;;;;4923993;29;20052;-52
2023/10/15 01:11:18;;;;;;;20.05;2.38;;;;;;;;;;4917648;29;20053;-54
2023/10/15 01:13:45;;;;;;;26.42;2.65;;;;;;;;;;4921543;29;20143;-53
2023/10/15 01:16:17;;;;;;;16.58;2.13;;;;;;;;;;4912674;29;20051;-56
2023/10/15 01:19:31;;;;;;;27.50;2.77;;;;;;;;;;4909734;29;20118;-52
2023/10/15 01:22:03;;;;;;;30.88;2.92;;;;;;;;;;4901453;29;20472;-52
2023/10/15 01:24:34;;;;;;;34.72;4.15;;;;;;;;;;4921138;29;20052;-54
2023/10/15 01:27:08;;;;;;;63.35;5.25;;;;;;;;;;4898073;29;20144;-56
2023/10/15 01:29:40;;;;;;;24.95;2.95;;;;;;;;;;4913540;29;20055;-54
2023/10/15 01:32:11;;;;;;;33.30;4.30;;;;;;;;;;4903314;29;20158;-57
2023/10/15 01:34:41;;;;;;;25.73;3.40;;;;;;;;;;4920602;29;20058;-57
2023/10/15 01:39:48;;;;;;;31.92;3.50;;;;;;;;;;4908814;29;20047;-54
2023/10/15 01:48:04;;;;;;;25.58;3.13;;;;;;;;;;4923345;29;20056;-57
2023/10/15 01:53:13;;;;;;;22.38;3.70;;;;;;;;;;4895453;29;20502;-54
2023/10/15 01:55:52;;;;;;;29.38;3.33;;;;;;;;;;4896862;29;20051;-56
2023/10/15 01:58:32;;;;;;;25.15;3.15;;;;;;;;;;4918545;29;20462;-56
2023/10/15 02:01:13;;;;;;;65.55;5.25;;;;;;;;;;4952166;23;20073;-60
2023/10/15 02:03:41;;;;;;;26.50;3.30;;;;;;;;;;4937433;28;20063;-53
2023/10/15 02:06:08;;;;;;;70.68;4.97;;;;;;;;;;4944099;28;20591;-52
2023/10/15 02:08:38;;;;;;;16.67;2.30;;;;;;;;;;4964094;28;20130;-55
2023/10/15 02:11:08;;;;;;;21.23;2.63;;;;;;;;;;4942488;28;20050;-51
2023/10/15 02:13:40;;;;;;;17.67;2.60;;;;;;;;;;4930388;28;20045;-57
2023/10/15 02:16:09;;;;;;;25.88;2.58;;;;;;;;;;4944217;28;20054;-55
2023/10/15 02:18:36;;;;;;;25.75;2.85;;;;;;;;;;4930999;28;20408;-58
2023/10/15 02:21:03;;;;;;;48.05;4.28;;;;;;;;;;4948216;28;20106;-56
2023/10/15 02:23:33;;;;;;;22.05;3.03;;;;;;;;;;4944685;28;20079;-56
2023/10/15 02:26:00;;;;;;;33.70;3.47;;;;;;;;;;4962424;28;20067;-55
2023/10/15 02:28:31;;;;;;;16.90;2.38;;;;;;;;;;4949908;28;20518;-57
2023/10/15 02:33:30;;;;;;;26.08;2.55;;;;;;;;;;4960923;28;20049;-55
2023/10/15 02:35:59;;;;;;;53.85;5.28;;;;;;;;;;4965542;28;20065;-61
2023/10/15 02:38:27;;;;;;;27.83;3.25;;;;;;;;;;4954175;28;20066;-58
2023/10/15 02:43:30;;;;;;;24.98;2.67;;;;;;;;;;4940382;28;20095;-57
2023/10/15 02:46:12;;;;;;;33.90;3.13;;;;;;;;;;4959198;28;20034;-57
2023/10/15 02:48:41;;;;;;;33.45;2.97;;;;;;;;;;4960667;28;20047;-55
2023/10/15 02:51:08;;;;;;;65.63;5.03;;;;;;;;;;4944661;28;20066;-53
2023/10/15 02:53:50;;;;;;;14.73;2.60;;;;;;;;;;4945852;28;20047;-55
2023/10/15 02:56:17;;;;;;;18.40;2.35;;;;;;;;;;4941717;29;20398;-57
2023/10/15 02:58:45;;;;;;;25.35;3.97;;;;;;;;;;4962956;28;20054;-55
2023/10/15 03:01:19;;;;;;;32.08;3.03;;;;;;;;;;4943455;28;20051;-57
2023/10/15 03:03:50;;;;;;;18.67;2.85;;;;;;;;;;4944233;28;20050;-60
2023/10/15 03:06:18;;;;;;;36.80;3.58;;;;;;;;;;4925505;29;20042;-61
2023/10/15 03:08:45;;;;;;;24.98;3.60;;;;;;;;;;4944107;29;20051;-57
2023/10/15 03:11:18;;;;;;;37.03;3.38;;;;;;;;;;4926492;29;20051;-55
2023/10/15 03:13:50;;;;;;;22.92;2.97;;;;;;;;;;4923819;28;20047;-54
2023/10/15 03:16:18;;;;;;;21.10;2.75;;;;;;;;;;4929148;29;20039;-60
2023/10/15 03:18:48;;;;;;;24.00;2.70;;;;;;;;;;4924093;29;20047;-58
2023/10/15 03:21:25;;;;;;;31.60;2.97;;;;;;;;;;4924773;28;20536;-54
2023/10/15 03:23:51;;;;;;;31.85;2.90;;;;;;;;;;4942251;28;20112;-64
2023/10/15 03:26:22;;;;;;;33.58;3.35;;;;;;;;;;4941639;29;20050;-57
2023/10/15 03:28:52;;;;;;;18.73;2.63;;;;;;;;;;4926267;29;20051;-56
2023/10/15 03:31:23;;;;;;;19.83;3.30;;;;;;;;;;4941479;28;20562;-56
2023/10/15 03:36:42;;;;;;;30.05;3.30;;;;;;;;;;4926202;28;20048;-54
2023/10/15 03:39:15;;;;;;;76.97;5.40;;;;;;;;;;4931807;28;20058;-57
2023/10/15 03:41:42;;;;;;;;;;;;;;;;;;4928971;29;20051;-55
2023/10/15 03:44:11;;;;;;;16.05;2.60;;;;;;;;;;4946808;28;20013;-53
2023/10/15 03:46:38;;;;;;;16.58;2.67;;;;;;;;;;4924468;29;20458;-58
2023/10/15 03:49:13;;;;;;;25.15;2.75;;;;;;;;;;4928100;29;20055;-54
2023/10/15 03:51:41;;;;;;;26.73;3.13;;;;;;;;;;4926058;29;20047;-55
2023/10/15 03:54:08;;;;;;;65.72;5.57;;;;;;;;;;4909016;28;20069;-57
2023/10/15 03:56:35;;;;;;;15.30;2.80;;;;;;;;;;4927673;29;20051;-58
2023/10/15 03:59:02;;;;;;;26.75;3.35;;;;;;;;;;4926228;29;20424;-57
2023/10/15 04:01:30;;;;;;;37.78;4.10;;;;;;;;;;4927693;28;20077;-56
2023/10/15 04:04:01;;;;;;;35.15;3.65;;;;;;;;;;4908487;29;20151;-56
2023/10/15 04:06:29;;;;;;;32.22;5.35;;;;;;;;;;4941503;28;20131;-57
2023/10/15 04:11:46;;;;;;;31.13;3.53;;;;;;;;;;4924289;29;20409;-57
2023/10/15 04:14:17;;;;;;;28.55;3.38;;;;;;;;;;4922984;29;20466;-54
2023/10/15 04:16:44;;;;;;;32.03;4.85;;;;;;;;;;4936233;28;20512;-53
2023/10/15 04:19:11;;;;;;;26.48;3.78;;;;;;;;;;4921756;29;20047;-56
2023/10/15 04:21:42;;;;;;;24.77;2.92;;;;;;;;;;4921703;29;20051;-55
2023/10/15 04:24:09;;;;;;;51.83;5.93;;;;;;;;;;4924186;29;20077;-56
2023/10/15 04:26:40;;;;;;;28.70;4.53;;;;;;;;;;4924291;29;20048;-57
2023/10/15 04:29:16;;;;;;;25.85;3.38;;;;;;;;;;4924847;29;20045;-58
2023/10/15 04:31:56;;;;;;;26.90;4.45;;;;;;;;;;4942417;28;20058;-54
2023/10/15 04:34:25;;;;;;;20.58;4.07;;;;;;;;;;4922859;29;20043;-54
2023/10/15 04:36:54;;;;;;;27.02;4.25;;;;;;;;;;4925864;29;20088;-56
2023/10/15 04:39:22;;;;;;;27.85;4.68;;;;;;;;;;4944549;28;20043;-57
2023/10/15 04:42:12;;;;;;;86.80;7.78;;;;;;;;;;4931612;28;20070;-60
2023/10/15 04:44:39;;;;;;;32.20;4.85;;;;;;;;;;4943884;29;20139;-58
2023/10/15 04:47:08;;;;;;;30.77;4.00;;;;;;;;;;4946946;28;20059;-55
2023/10/15 04:49:34;;;;;;;36.08;4.45;;;;;;;;;;4927446;29;20058;-55
2023/10/15 04:52:01;;;;;;;27.33;3.90;;;;;;;;;;4940892;28;20131;-60
2023/10/15 04:54:27;;;;;;;25.67;3.25;;;;;;;;;;4942537;29;20055;-57
2023/10/15 04:56:57;;;;;;;20.33;3.22;;;;;;;;;;4924231;29;20044;-62
2023/10/15 04:59:24;;;;;;;14.27;3.08;;;;;;;;;;4941048;29;20047;-53
2023/10/15 05:01:51;;;;;;;25.20;3.15;;;;;;;;;;4916602;28;20062;-56
2023/10/15 05:04:18;;;;;;;22.38;2.72;;;;;;;;;;4968606;28;20069;-59
2023/10/15 05:06:44;;;;;;;24.42;2.45;;;;;;;;;;4958419;28;20058;-58
2023/10/15 05:09:21;;;;;;;42.40;3.97;;;;;;;;;;4947082;28;20170;-59
2023/10/15 05:11:50;;;;;;;18.73;2.80;;;;;;;;;;4946686;28;20066;-58
2023/10/15 05:14:20;;;;;;;34.10;3.55;;;;;;;;;;4944822;28;20055;-58
2023/10/15 05:16:46;;;;;;;24.15;3.85;;;;;;;;;;4943263;28;20078;-57
2023/10/15 05:19:19;;;;;;;34.90;3.10;;;;;;;;;;4949663;28;20078;-56
2023/10/15 05:21:46;;;;;;;16.53;2.40;;;;;;;;;;4929618;28;20055;-57
2023/10/15 05:24:18;;;;;;;42.83;4.10;;;;;;;;;;4951087;28;20170;-56
2023/10/15 05:26:46;;;;;;;14.90;2.50;;;;;;;;;;4966353;28;20043;-55
2023/10/15 05:29:16;;;;;;;21.50;1.98;;;;;;;;;;4964387;28;20047;-56
2023/10/15 05:31:43;;;;;;;20.00;3.45;;;;;;;;;;4962316;28;20047;-58
2023/10/15 05:34:10;;;;;;;26.38;3.15;;;;;;;;;;4960887;28;20473;-56
2023/10/15 05:36:37;;;;;;;26.52;2.60;;;;;;;;;;4963303;28;20083;-64
2023/10/15 05:39:04;;;;;;;67.60;5.47;;;;;;;;;;4946556;28;20050;-58
2023/10/15 05:41:32;;;;;;;27.95;2.90;;;;;;;;;;4945460;28;20051;-58
2023/10/15 05:43:59;;;;;;;25.77;2.35;;;;;;;;;;4948303;28;20050;-56
2023/10/15 05:46:27;;;;;;;35.03;2.88;;;;;;;;;;4960528;28;20050;-58
2023/10/15 05:48:59;;;;;;;30.60;3.33;;;;;;;;;;4962644;28;20046;-60
2023/10/15 05:51:28;;;;;;;44.83;4.38;;;;;;;;;;4963422;28;20042;-61
2023/10/15 05:53:55;;;;;;;19.83;3.92;;;;;;;;;;4967547;28;20058;-61
2023/10/15 05:56:22;;;;;;;23.83;3.08;;;;;;;;;;4966279;28;20058;-57
2023/10/15 05:58:49;;;;;;;32.78;3.30;;;;;;;;;;4945543;28;20137;-56
2023/10/15 06:01:15;;;;;;;27.30;2.58;;;;;;;;;;4965501;28;20122;-55
2023/10/15 06:03:42;;;;;;;30.15;3.03;;;;;;;;;;4963693;28;20123;-58
2023/10/15 06:06:10;;;;;;;69.53;6.05;;;;;;;;;;4966070;28;20057;-57
2023/10/15 06:08:37;;;;;;;23.08;3.65;;;;;;;;;;4972895;28;20044;-58
2023/10/15 06:11:04;;;;;;;20.52;2.50;;;;;;;;;;4948780;28;20161;-57
2023/10/15 06:13:31;;;;;;;17.83;2.17;;;;;;;;;;4952442;28;20046;-56
2023/10/15 06:16:00;;;;;;;16.73;2.55;;;;;;;;;;4945762;28;20051;-59
2023/10/15 06:18:27;;;;;;;30.45;2.90;;;;;;;;;;4936725;28;20488;-57
2023/10/15 06:20:54;;;;;;;29.65;3.03;;;;;;;;;;4962891;28;20047;-58
2023/10/15 06:23:21;;;;;;;40.80;3.30;;;;;;;;;;4951653;28;20047;-56
2023/10/15 06:25:47;;;;;;;26.20;3.97;;;;;;;;;;4964630;28;20053;-56
2023/10/15 06:28:14;;;;;;;23.02;2.40;;;;;;;;;;4965869;28;20049;-56
2023/10/15 06:30:41;;;;;;;26.95;2.78;;;;;;;;;;4959665;28;20121;-57
2023/10/15 06:33:08;;;;;;;63.58;5.07;;;;;;;;;;4978557;28;20069;-58
2023/10/15 06:35:35;;;;;;;22.02;2.40;;;;;;;;;;4984150;28;20089;-57
2023/10/15 06:38:02;;;;;;;20.48;2.80;;;;;;;;;;4979539;28;20042;-58
2023/10/15 06:40:30;;;;;;;33.85;3.97;;;;;;;;;;4960966;28;20073;-56
2023/10/15 06:43:01;;;;;;;16.83;2.72;;;;;;;;;;4975986;28;20042;-60
2023/10/15 06:45:29;;;;;;;35.80;3.78;;;;;;;;;;4943964;28;20040;-56
2023/10/15 06:47:56;;;;;;;21.58;2.90;;;;;;;;;;4965129;28;20058;-62
2023/10/15 06:50:23;;;;;;;23.08;3.13;;;;;;;;;;4961462;28;20115;-58
2023/10/15 06:52:53;;;;;;;26.35;3.33;;;;;;;;;;4969382;28;20039;-58
2023/10/15 06:55:20;;;;;;;28.83;4.10;;;;;;;;;;4965001;28;20039;-56
2023/10/15 06:57:48;;;;;;;27.80;3.78;;;;;;;;;;4958813;28;20122;-57
2023/10/15 07:00:21;;;;;;;47.83;4.38;;;;;;;;;;4944530;28;20169;-58
2023/10/15 07:02:49;;;;;;;;;;;;;;;;;;4943570;29;20086;-58
2023/10/15 07:05:16;;;;;;;29.15;3.40;;;;;;;;;;4940236;29;20005;-65
2023/10/15 07:07:45;;;;;;;22.98;2.30;;;;;;;;;;4944326;28;20048;-56
2023/10/15 07:10:15;;;;;;;30.38;3.20;;;;;;;;;;4949428;28;20043;-57
2023/10/15 07:12:46;;;;;;;27.48;3.33;;;;;;;;;;4941969;28;20131;-57
2023/10/15 07:15:15;;;;;;;73.22;4.95;;;;;;;;;;4941921;29;20057;-56
2023/10/15 07:17:42;;;;;;;19.35;2.80;;;;;;;;;;4942157;29;20052;-56
2023/10/15 07:20:17;;;;;;;26.02;2.95;;;;;;;;;;4946085;28;20110;-57
2023/10/15 07:22:46;;;;;;;28.05;3.05;;;;;;;;;;4938620;29;20057;-55
2023/10/15 07:25:14;;;;;;;36.55;3.22;;;;;;;;;;4942437;29;20075;-55
2023/10/15 07:27:45;;;;;;;29.77;2.92;;;;;;;;;;4955551;28;20048;-56
2023/10/15 07:30:13;;;;;;;74.80;5.00;;;;;;;;;;4940001;29;20046;-56
2023/10/15 07:32:40;;;;;;;18.40;2.58;;;;;;;;;;4942833;29;20051;-56
2023/10/15 07:35:11;;;;;;;23.90;2.33;;;;;;;;;;4938495;29;20051;-56
2023/10/15 07:37:46;;;;;;;22.63;4.55;;;;;;;;;;4943306;29;20047;-54
2023/10/15 07:40:21;;;;;;;24.88;2.33;;;;;;;;;;4941548;29;20052;-55
2023/10/15 07:42:52;;;;;;;20.80;3.15;;;;;;;;;;4930523;29;20054;-57
2023/10/15 07:45:19;;;;;;;29.77;2.67;;;;;;;;;;4940782;28;20382;-56
2023/10/15 07:47:46;;;;;;;24.02;3.30;;;;;;;;;;4945021;29;20071;-59
2023/10/15 07:50:16;;;;;;;19.75;3.25;;;;;;;;;;4942380;29;20050;-55
2023/10/15 07:52:44;;;;;;;20.65;4.55;;;;;;;;;;4938944;28;20485;-52
2023/10/15 07:55:11;;;;;;;26.50;3.15;;;;;;;;;;4941116;29;20050;-54
2023/10/15 07:57:38;;;;;;;30.75;2.92;;;;;;;;;;4943199;28;20047;-56
2023/10/15 08:00:10;;;;;;;54.88;4.45;;;;;;;;;;4949729;28;20050;-56
2023/10/15 08:02:41;;;;;;;25.55;2.83;;;;;;;;;;4957149;28;20100;-56
2023/10/15 08:05:11;;;;;;;16.58;2.10;;;;;;;;;;4947745;28;20054;-56
2023/10/15 08:07:41;;;;;;;39.05;3.00;;;;;;;;;;4944903;28;20048;-53
2023/10/15 08:10:09;;;;;;;28.75;3.03;;;;;;;;;;4948357;28;20492;-56
2023/10/15 08:12:36;;;;;;;29.67;2.60;;;;;;;;;;4946244;28;20376;-53
2023/10/15 08:15:03;;;;;;;59.65;5.13;;;;;;;;;;4964535;28;20039;-56
2023/10/15 08:17:31;;;;;;;17.13;2.28;;;;;;;;;;4964490;28;20464;-54
2023/10/15 08:19:58;;;;;;;25.13;2.83;;;;;;;;;;4946669;28;20050;-55
2023/10/15 08:22:28;;;;;;;28.17;3.47;;;;;;;;;;4965188;28;20049;-53
2023/10/15 08:24:55;;;;;;;23.48;2.88;;;;;;;;;;4962820;28;20047;-56
2023/10/15 08:27:22;;;;;;;34.83;2.88;;;;;;;;;;4946820;28;20566;-51
2023/10/15 08:29:49;;;;;;;17.70;2.40;;;;;;;;;;4966580;28;20452;-55
2023/10/15 08:32:18;;;;;;;31.98;3.05;;;;;;;;;;4962253;28;20129;-57
2023/10/15 08:34:48;;;;;;;19.43;2.37;;;;;;;;;;4948294;29;20047;-56
2023/10/15 08:37:15;;;;;;;42.40;3.78;;;;;;;;;;4952580;28;20053;-52
2023/10/15 08:39:41;;;;;;;17.88;2.83;;;;;;;;;;4966930;28;20484;-53
2023/10/15 08:42:20;;;;;;;61.10;4.53;;;;;;;;;;4963256;28;20043;-55
2023/10/15 08:44:52;;;;;;;18.08;2.10;;;;;;;;;;4950328;28;20051;-54
2023/10/15 08:47:19;;;;;;;20.13;2.58;;;;;;;;;;4945976;28;20106;-51
2023/10/15 08:49:49;;;;;;;15.95;2.13;;;;;;;;;;4962586;28;20043;-55
2023/10/15 08:52:16;;;;;;;35.08;3.45;;;;;;;;;;4946074;28;20039;-62
2023/10/15 08:54:43;;;;;;;26.42;2.58;;;;;;;;;;4963296;28;20508;-52
2023/10/15 08:57:10;;;;;;;69.57;4.93;;;;;;;;;;4955357;28;20437;-55
2023/10/15 08:59:36;;;;;;;31.13;2.75;;;;;;;;;;4947219;28;20051;-54
2023/10/15 09:02:05;;;;;;;16.35;2.55;;;;;;;;;;4949921;28;20572;-53
2023/10/15 09:04:32;;;;;;;29.63;2.83;;;;;;;;;;4962821;28;20071;-54
2023/10/15 09:07:03;;;;;;;20.38;2.92;;;;;;;;;;4947096;28;20046;-54
2023/10/15 09:09:30;;;;;;;22.83;3.00;;;;;;;;;;4946240;28;20468;-54
2023/10/15 09:11:56;;;;;;;21.23;2.35;;;;;;;;;;4947114;28;20579;-54
2023/10/15 09:14:56;;;;;;;26.42;2.45;;;;;;;;;;4964097;28;20061;-52
2023/10/15 09:17:25;;;;;;;25.92;3.38;;;;;;;;;;4890873;29;20057;-52
2023/10/15 09:19:52;;;;;;;19.90;2.47;;;;;;;;;;4893784;29;20088;-52
2023/10/15 09:22:19;;;;;;;25.00;2.97;;;;;;;;;;4906289;29;20482;-52
2023/10/15 09:24:46;;;;;;;20.23;2.95;;;;;;;;;;4908657;29;20052;-57
2023/10/15 09:27:13;;;;;;;61.38;4.57;;;;;;;;;;4908066;29;20562;-53
2023/10/15 09:29:41;;;;;;;30.83;3.35;;;;;;;;;;4889829;29;20064;-51
2023/10/15 09:32:08;;;;;;;11.23;1.88;;;;;;;;;;4909874;29;20059;-54
2023/10/15 09:34:38;;;;;;;14.30;1.88;;;;;;;;;;4903089;29;20212;-56
2023/10/15 09:37:09;;;;;;;22.40;2.40;;;;;;;;;;4888358;29;20076;-54
2023/10/15 09:39:38;;;;;;;20.35;2.05;;;;;;;;;;4896578;29;20466;-53
2023/10/15 09:42:05;;;;;;;53.35;4.63;;;;;;;;;;4904670;29;20062;-59
2023/10/15 09:44:32;;;;;;;29.80;3.05;;;;;;;;;;4897940;29;20095;-54
2023/10/15 09:47:01;;;;;;;20.83;3.38;;;;;;;;;;4890153;29;20097;-52
2023/10/15 09:49:29;;;;;;;28.35;2.60;;;;;;;;;;4905212;29;20634;-53
2023/10/15 09:51:55;;;;;;;36.97;3.33;;;;;;;;;;4906630;29;20036;-51
2023/10/15 09:54:23;;;;;;;32.80;3.30;;;;;;;;;;4945160;28;20087;-51
2023/10/15 09:56:50;;;;;;;17.75;2.58;;;;;;;;;;4963229;28;20043;-52
2023/10/15 09:59:19;;;;;;;21.67;2.25;;;;;;;;;;4963110;28;20516;-53
2023/10/15 10:01:49;;;;;;;16.17;2.60;;;;;;;;;;4941218;28;20051;-55
2023/10/15 10:04:39;;;;;;;34.45;3.47;;;;;;;;;;4964059;28;20051;-54
2023/10/15 10:07:18;;;;;;;17.83;2.28;;;;;;;;;;4960320;28;20149;-54
2023/10/15 10:10:04;;;;;;;17.65;2.45;;;;;;;;;;4963486;28;20051;-52
2023/10/15 10:12:50;;;;;;;23.80;2.83;;;;;;;;;;4944752;28;20045;-51
2023/10/15 10:15:30;;;;;;;66.95;4.88;;;;;;;;;;4962046;28;20058;-54
2023/10/15 10:17:59;;;;;;;21.92;3.00;;;;;;;;;;4968468;28;20035;-57
2023/10/15 10:20:33;;;;;;;16.67;2.30;;;;;;;;;;4943690;28;20481;-54
2023/10/15 10:23:02;;;;;;;22.90;3.58;;;;;;;;;;4962406;28;20053;-56
2023/10/15 10:25:35;;;;;;;25.40;3.40;;;;;;;;;;4942178;28;20043;-53
2023/10/15 10:28:07;;;;;;;16.98;2.60;;;;;;;;;;4942470;28;20043;-54
2023/10/15 10:31:04;;;;;;;23.75;3.17;;;;;;;;;;4961786;28;20106;-54
2023/10/15 10:33:40;;;;;;;29.80;3.78;;;;;;;;;;4947617;28;20039;-51
2023/10/15 10:36:28;;;;;;;42.08;3.75;;;;;;;;;;4944850;28;20107;-54
2023/10/15 10:39:07;;;;;;;30.88;2.78;;;;;;;;;;4969510;28;20145;-55
2023/10/15 10:41:37;;;;;;;19.45;2.45;;;;;;;;;;4982255;28;20061;-57
2023/10/15 10:44:04;;;;;;;15.82;2.47;;;;;;;;;;4956284;28;20044;-54
2023/10/15 10:46:54;;;;;;;18.48;2.10;;;;;;;;;;4977193;28;20484;-53
2023/10/15 10:49:40;;;;;;;23.77;3.45;;;;;;;;;;4958130;28;20042;-54
2023/10/15 10:52:14;;;;;;;27.98;3.28;;;;;;;;;;4973601;28;20125;-56
2023/10/15 10:54:42;;;;;;;34.88;2.92;;;;;;;;;;4959363;28;20515;-57
2023/10/15 10:57:10;;;;;;;59.67;4.32;;;;;;;;;;4963159;28;20046;-57
2023/10/15 10:59:46;;;;;;;805.03;73.65;;;;;;;;;;4942202;23;20198;-87
2023/10/15 11:02:14;;;;;;;813.42;74.63;;;;;;;;;;4872531;28;20042;-86
2023/10/15 11:04:41;;;;;;;847.90;77.32;;;;;;;;;;4861140;28;20116;-85
2023/10/15 11:07:10;;;;;;;880.78;82.35;;;;;;;;;;4874052;28;20042;-88
2023/10/15 11:09:37;;;;;;;928.50;88.03;;;;;;;;;;4873022;28;20205;-88
2023/10/15 11:12:06;;;;;;;882.33;82.40;;;;;;;;;;4880038;28;20037;-89
2023/10/15 11:14:33;;;;;;;933.88;86.72;;;;;;;;;;4872696;28;20557;-89
2023/10/15 11:17:00;;;;;;;854.20;78.90;;;;;;;;;;4872656;28;20034;-88
2023/10/15 11:19:30;;;;;;;830.42;76.53;;;;;;;;;;4855909;28;20992;-88
2023/10/15 11:21:57;;;;;;;872.45;81.80;;;;;;;;;;4874526;28;20946;-88
2023/10/15 11:24:26;;;;;;;909.17;86.15;;;;;;;;;;4873792;28;20046;-89
2023/10/15 11:26:54;;;;;;;867.33;80.78;;;;;;;;;;4882591;28;20047;-89
2023/10/15 11:29:23;;;;;;;859.22;79.20;;;;;;;;;;4879380;28;20047;-89
2023/10/15 11:31:55;;;;;;;850.67;78.70;;;;;;;;;;4876997;28;20042;-88
2023/10/15 11:34:27;;;;;;;914.53;84.05;;;;;;;;;;4861218;28;20109;-89
2023/10/15 11:37:00;;;;;;;918.42;86.47;;;;;;;;;;4862601;28;20053;-88
2023/10/15 11:39:37;;;;;;;902.22;83.50;;;;;;;;;;4837917;28;20535;-88
2023/10/15 11:42:07;;;;;;;799.55;72.38;;;;;;;;;;4846811;28;20046;-88
2023/10/15 11:44:42;;;;;;;846.92;76.40;;;;;;;;;;4899795;28;20050;-90
2023/10/15 11:47:20;;;;;;;792.10;71.90;;;;;;;;;;4866648;28;20046;-90
2023/10/15 11:49:50;;;;;;;672.05;54.85;;;;;;;;;;4890166;28;20043;-91
2023/10/15 11:52:39;;;;;;;723.75;64.32;;;;;;;;;;4888875;28;20038;-90
2023/10/15 12:03:08;;;;;;;629.75;55.13;;;;;;;;;;4887534;28;20276;-91
2023/10/15 12:06:25;;;;;;;889.60;81.00;;;;;;;;;;4848677;28;20046;-91
2023/10/15 12:12:34;;;;;;;643.53;53.72;;;;;;;;;;4836844;29;20095;-91
2023/10/15 12:15:07;;;;;;;477.27;38.38;;;;;;;;;;4819001;29;20128;-90
2023/10/15 12:17:42;;;;;;;395.83;31.85;;;;;;;;;;4858493;29;20616;-91
2023/10/15 12:20:20;;;;;;;530.55;43.83;;;;;;;;;;4824673;29;20200;-92
2023/10/15 12:22:50;;;;;;;456.08;36.88;;;;;;;;;;4851620;29;20590;-92
2023/10/15 12:25:17;;;;;;;454.58;35.60;;;;;;;;;;4866823;29;20048;-92
2023/10/15 12:28:23;;;;;;;308.35;25.65;;;;;;;;;;4842273;29;20115;-89
2023/10/15 12:30:50;;;;;;;32.13;4.38;;;;;;;;;;4879367;29;20049;-91
2023/10/15 12:33:17;;;;;;;203.35;14.38;;;;;;;;;;4892776;29;20596;-92
2023/10/15 12:35:50;;;;;;;63.40;6.20;;;;;;;;;;4895138;29;20480;-91
2023/10/15 12:38:26;;;;;;;36.05;3.47;;;;;;;;;;4890876;29;20049;-91
2023/10/15 12:40:55;;;;;;;23.60;3.00;;;;;;;;;;4890201;29;20055;-91
2023/10/15 12:43:22;;;;;;;27.60;3.03;;;;;;;;;;4901432;29;20081;-92
2023/10/15 12:45:52;;;;;;;91.85;6.20;;;;;;;;;;4876567;29;20051;-91
2023/10/15 12:48:29;;;;;;;291.27;20.20;;;;;;;;;;4889504;28;20495;-91
2023/10/15 12:50:59;;;;;;;29.45;3.05;;;;;;;;;;4945476;28;20127;-91
2023/10/15 12:53:32;;;;;;;28.42;3.08;;;;;;;;;;4955341;28;20051;-91
2023/10/15 12:56:02;;;;;;;39.60;4.05;;;;;;;;;;4945364;28;20047;-91
2023/10/15 12:58:29;;;;;;;78.72;6.25;;;;;;;;;;4956405;28;20030;-90
2023/10/15 13:00:58;;;;;;;24.77;3.17;;;;;;;;;;4960853;28;20045;-91
2023/10/15 13:03:34;;;;;;;280.95;22.48;;;;;;;;;;4946018;28;20049;-91
2023/10/15 13:06:00;;;;;;;21.08;3.28;;;;;;;;;;4958839;28;20039;-90
2023/10/15 13:08:27;;;;;;;79.90;5.88;;;;;;;;;;4971884;28;20114;-90
2023/10/15 13:10:56;;;;;;;76.70;6.13;;;;;;;;;;4981185;28;20034;-87
2023/10/15 13:13:28;;;;;;;835.75;75.95;;;;;;;;;;4876462;28;20034;-88
2023/10/15 13:15:55;;;;;;;928.33;86.07;;;;;;;;;;4868052;28;20132;-88
2023/10/15 13:18:23;;;;;;;1018.17;97.75;;;;;;;;;;4868561;28;21357;-87
2023/10/15 13:20:50;;;;;;;810.85;72.75;;;;;;;;;;4882811;28;20035;-87
2023/10/15 13:23:16;;;;;;;929.42;86.57;;;;;;;;;;4870098;28;20443;-88
2023/10/15 13:25:43;;;;;;;31.40;3.25;;;;;;;;;;4949339;28;20117;-90
2023/10/15 13:28:09;;;;;;;20.92;2.72;;;;;;;;;;4985044;28;20405;-87
2023/10/15 13:30:36;;;;;;;26.85;3.45;;;;;;;;;;4982744;28;20031;-88
2023/10/15 13:33:03;;;;;;;25.35;3.53;;;;;;;;;;4983403;28;20046;-87
2023/10/15 13:35:30;;;;;;;913.42;84.82;;;;;;;;;;4919593;28;20035;-89
2023/10/15 13:37:58;;;;;;;55.22;4.93;;;;;;;;;;4958596;28;20517;-90
2023/10/15 13:40:25;;;;;;;56.63;4.60;;;;;;;;;;4969116;28;20438;-89
2023/10/15 13:42:52;;;;;;;77.43;7.07;;;;;;;;;;4915295;28;20049;-90
2023/10/15 13:45:35;;;;;;;66.65;5.90;;;;;;;;;;4911179;28;20501;-90
2023/10/15 13:48:02;;;;;;;879.03;78.68;;;;;;;;;;4921172;28;21062;-89
2023/10/15 13:50:29;;;;;;;732.65;63.65;;;;;;;;;;4889877;28;20102;-89
2023/10/15 13:53:03;;;;;;;336.73;25.63;;;;;;;;;;4912903;28;20058;-91
2023/10/15 13:55:30;;;;;;;667.17;55.90;;;;;;;;;;4892595;28;20045;-90
2023/10/15 13:57:58;;;;;;;568.88;46.15;;;;;;;;;;4892531;28;20045;-89
2023/10/15 14:00:31;;;;;;;740.90;61.53;;;;;;;;;;4894440;28;20933;-89
2023/10/15 14:03:22;;;;;;;1010.20;90.75;;;;;;;;;;4883549;28;20030;-89
2023/10/15 14:06:05;;;;;;;1005.53;92.03;;;;;;;;;;4850870;28;20096;-91
2023/10/15 14:12:51;;;;;;;;;;;;;;;;;;4867266;28;20033;-90
2023/10/15 14:15:45;;;;;;;1293.72;124.97;;;;;;;;;;4839859;28;20120;-90
2023/10/15 14:22:57;;;;;;;942.67;86.90;;;;;;;;;;4802233;29;21109;-89
2023/10/15 14:25:45;;;;;;;39.45;4.03;;;;;;;;;;4907570;29;20046;-92
2023/10/15 14:28:12;;;;;;;827.22;73.35;;;;;;;;;;4800013;29;20593;-89
2023/10/15 14:30:39;;;;;;;767.35;66.72;;;;;;;;;;4802618;29;20056;-91
2023/10/15 14:33:07;;;;;;;859.55;75.30;;;;;;;;;;4825818;29;20227;-89
2023/10/15 14:35:39;;;;;;;860.17;79.05;;;;;;;;;;4784455;29;20056;-88
2023/10/15 14:38:09;;;;;;;924.95;84.68;;;;;;;;;;4799710;29;20043;-89
2023/10/15 14:40:44;;;;;;;900.40;82.05;;;;;;;;;;4812225;29;20048;-88
2023/10/15 14:43:20;;;;;;;145.63;10.95;;;;;;;;;;4886113;29;20056;-90
2023/10/15 14:45:48;;;;;;;1062.47;100.88;;;;;;;;;;4821667;29;20044;-89
2023/10/15 14:48:17;;;;;;;976.88;90.75;;;;;;;;;;4799989;29;20634;-86
2023/10/15 14:50:45;;;;;;;884.42;81.03;;;;;;;;;;4799619;29;20159;-87
2023/10/15 14:53:11;;;;;;;910.83;82.90;;;;;;;;;;4797385;29;20086;-88
2023/10/15 14:55:38;;;;;;;663.47;55.88;;;;;;;;;;4844871;28;20054;-87
2023/10/15 14:58:05;;;;;;;948.25;87.38;;;;;;;;;;4871133;28;20042;-86
2023/10/15 15:00:32;;;;;;;884.72;80.13;;;;;;;;;;4870305;28;20038;-88
2023/10/15 15:02:59;;;;;;;833.42;74.45;;;;;;;;;;4881792;28;20940;-89
2023/10/15 15:05:26;;;;;;;606.53;49.97;;;;;;;;;;4871473;28;20046;-89
2023/10/15 15:07:53;;;;;;;938.78;86.45;;;;;;;;;;4887708;28;20041;-89
2023/10/15 15:10:21;;;;;;;870.38;78.00;;;;;;;;;;4863737;28;20043;-87
2023/10/15 15:13:14;;;;;;;898.13;80.65;;;;;;;;;;4861451;28;20130;-86
2023/10/15 15:16:08;;;;;;;950.80;85.82;;;;;;;;;;4830668;28;20038;-87
2023/10/15 15:18:35;;;;;;;1013.00;92.65;;;;;;;;;;4861928;28;20074;-86
2023/10/15 15:21:30;;;;;;;972.92;91.45;;;;;;;;;;4840326;28;21297;-89
2023/10/15 15:24:00;;;;;;;945.25;89.80;;;;;;;;;;4867719;28;20050;-88
2023/10/15 15:26:42;;;;;;;953.20;89.30;;;;;;;;;;4832543;28;20054;-89
2023/10/15 15:29:09;;;;;;;946.22;90.07;;;;;;;;;;4847937;28;20046;-89
2023/10/15 15:31:35;;;;;;;1048.25;100.22;;;;;;;;;;4857805;28;20147;-88